Time;durP1;ratioP1;P1;durP2;ratioP2;P2;SDS_P1;SDS_P2;PMS_P1;PMS_P2;Temp;Humidity;BMP_temperature;BMP_pressure;BME280_temperature;BME280_humidity;BME280_pressure;Samples;Min_cycle;Max_cycle;Signal;HPM_P1;HPM_P2
2022/11/25 00:01:18;;;;;;;8.10;1.98;;;9.80;99.90;;;;;;5043299;28;20024;-39
2022/11/25 00:03:45;;;;;;;9.00;2.20;;;9.80;99.90;;;;;;5043072;28;20396;-40
2022/11/25 00:06:21;;;;;;;10.38;2.22;;;9.80;99.90;;;;;;5043322;28;20100;-40
2022/11/25 00:08:50;;;;;;;7.72;2.33;;;9.70;99.90;;;;;;5043768;28;20037;-40
2022/11/25 00:11:16;;;;;;;11.10;2.33;;;9.70;99.90;;;;;;5041489;28;20029;-40
2022/11/25 00:13:43;;;;;;;7.00;2.05;;;9.70;99.90;;;;;;5042918;28;20025;-40
2022/11/25 00:16:14;;;;;;;7.53;2.20;;;9.60;99.90;;;;;;5043040;28;20749;-40
2022/11/25 00:18:44;;;;;;;10.05;2.30;;;9.60;99.90;;;;;;5043027;28;20035;-41
2022/11/25 00:21:12;;;;;;;6.88;2.03;;;9.60;99.90;;;;;;5043043;28;20095;-41
2022/11/25 00:23:38;;;;;;;10.65;2.50;;;9.50;99.90;;;;;;5042472;28;20467;-40
2022/11/25 00:26:12;;;;;;;10.30;2.35;;;9.50;99.90;;;;;;5042475;28;20020;-39
2022/11/25 00:28:39;;;;;;;6.35;2.03;;;9.50;99.90;;;;;;5042815;28;20136;-39
2022/11/25 00:31:06;;;;;;;7.28;1.98;;;9.50;99.90;;;;;;5041724;28;20025;-40
2022/11/25 00:33:31;;;;;;;9.05;2.03;;;9.50;99.90;;;;;;5043446;28;20040;-39
2022/11/25 00:36:00;;;;;;;10.55;2.53;;;9.50;99.90;;;;;;5041959;28;20057;-41
2022/11/25 00:38:25;;;;;;;8.23;1.80;;;9.50;99.90;;;;;;5042318;28;20024;-39
2022/11/25 00:44:34;;;;;;;5.82;2.28;;;9.50;99.90;;;;;;5043258;28;20029;-41
2022/11/25 00:46:21;;;;;;;6.40;2.10;;;9.50;99.90;;;;;;5041662;28;20040;-40
2022/11/25 00:48:46;;;;;;;7.15;2.40;;;9.50;99.90;;;;;;5042299;28;20376;-40
2022/11/25 00:51:12;;;;;;;6.68;2.20;;;9.50;99.90;;;;;;5042479;28;20400;-41
2022/11/25 00:53:37;;;;;;;9.25;2.17;;;9.40;99.90;;;;;;5041428;28;20067;-41
2022/11/25 00:56:12;;;;;;;11.60;2.15;;;9.40;99.90;;;;;;5042827;28;20128;-39
2022/11/25 00:58:38;;;;;;;11.65;2.40;;;9.50;99.90;;;;;;5041506;28;20041;-41
2022/11/25 01:01:04;;;;;;;7.95;2.00;;;9.40;99.90;;;;;;5041982;28;20052;-41
2022/11/25 01:03:30;;;;;;;9.07;2.35;;;9.40;99.90;;;;;;5041921;28;20469;-41
2022/11/25 01:06:00;;;;;;;7.10;2.20;;;9.40;99.90;;;;;;5041913;28;20455;-37
2022/11/25 01:08:33;;;;;;;8.95;2.15;;;9.40;99.90;;;;;;5042060;28;20388;-41
2022/11/25 01:11:05;;;;;;;8.27;2.35;;;9.40;99.90;;;;;;5022337;28;20052;-40
2022/11/25 01:13:31;;;;;;;8.57;2.20;;;9.40;99.90;;;;;;5036967;28;20119;-41
2022/11/25 01:16:01;;;;;;;6.20;1.65;;;9.40;99.90;;;;;;5041798;28;20568;-40
2022/11/25 01:18:27;;;;;;;5.80;1.90;;;9.40;99.90;;;;;;5042196;28;20029;-40
2022/11/25 01:20:53;;;;;;;11.40;2.80;;;9.40;99.90;;;;;;5041632;28;20017;-40
2022/11/25 01:23:18;;;;;;;8.90;2.53;;;9.40;99.90;;;;;;5041333;28;20033;-42
2022/11/25 01:25:44;;;;;;;7.95;1.98;;;9.50;99.90;;;;;;5041707;28;20021;-39
2022/11/25 01:28:09;;;;;;;8.38;2.35;;;9.50;99.90;;;;;;5041033;28;20029;-41
2022/11/25 01:30:35;;;;;;;6.35;1.95;;;9.40;99.90;;;;;;5041481;28;20113;-39
2022/11/25 01:33:01;;;;;;;7.22;1.73;;;9.50;99.90;;;;;;5041897;28;20477;-40
2022/11/25 01:35:29;;;;;;;5.30;1.80;;;9.40;99.90;;;;;;5041577;28;20732;-41
2022/11/25 01:37:54;;;;;;;5.97;1.88;;;9.50;99.90;;;;;;5041640;28;20048;-41
2022/11/25 01:40:20;;;;;;;7.57;1.85;;;9.40;99.90;;;;;;5041287;28;20025;-41
2022/11/25 01:42:47;;;;;;;10.48;2.20;;;9.50;99.90;;;;;;5039799;28;20037;-40
2022/11/25 01:45:21;;;;;;;6.82;1.52;;;9.40;99.90;;;;;;5041716;28;20096;-41
2022/11/25 01:47:53;;;;;;;5.40;1.80;;;9.50;99.90;;;;;;5041102;28;20044;-41
2022/11/25 01:50:20;;;;;;;6.30;1.90;;;9.40;99.90;;;;;;5039813;28;20830;-40
2022/11/25 01:52:49;;;;;;;8.00;1.80;;;9.50;99.90;;;;;;5041738;28;20499;-40
2022/11/25 01:55:19;;;;;;;6.53;1.80;;;9.40;99.90;;;;;;5040941;28;20052;-40
2022/11/25 01:58:08;;;;;;;5.90;1.70;;;9.50;99.90;;;;;;5041018;28;20021;-41
2022/11/25 02:00:36;;;;;;;7.78;2.13;;;9.50;99.90;;;;;;5037049;28;20040;-40
2022/11/25 02:03:02;;;;;;;12.77;2.35;;;9.50;99.90;;;;;;5040882;28;20040;-41
2022/11/25 02:05:37;;;;;;;6.22;1.95;;;9.50;99.90;;;;;;5040750;28;20086;-41
2022/11/25 02:08:04;;;;;;;8.48;2.15;;;9.50;99.90;;;;;;5041277;28;20433;-41
2022/11/25 02:10:31;;;;;;;6.72;2.17;;;9.50;99.90;;;;;;5040064;28;20559;-39
2022/11/25 02:12:58;;;;;;;8.82;2.20;;;9.50;99.90;;;;;;5021152;28;20029;-41
2022/11/25 02:15:24;;;;;;;6.28;1.90;;;9.50;99.90;;;;;;5035838;28;20130;-40
2022/11/25 02:17:50;;;;;;;8.52;2.10;;;9.50;99.90;;;;;;5040448;28;20514;-40
2022/11/25 02:20:19;;;;;;;6.00;2.08;;;9.50;99.90;;;;;;5040836;28;20480;-41
2022/11/25 02:23:13;;;;;;;6.25;1.70;;;9.50;99.90;;;;;;5040726;28;20074;-41
2022/11/25 02:25:40;;;;;;;5.45;1.50;;;9.50;99.90;;;;;;5039957;28;20041;-41
2022/11/25 02:28:08;;;;;;;9.05;2.10;;;9.60;99.90;;;;;;5040905;28;20840;-41
2022/11/25 02:30:34;;;;;;;6.25;1.77;;;9.60;99.90;;;;;;5040391;28;20016;-42
2022/11/25 02:33:00;;;;;;;6.43;1.88;;;9.60;99.90;;;;;;5040938;28;20033;-40
2022/11/25 02:35:38;;;;;;;4.97;1.60;;;9.60;99.90;;;;;;5040933;28;20461;-40
2022/11/25 02:38:15;;;;;;;5.85;2.42;;;9.60;99.90;;;;;;5040312;28;20024;-40
2022/11/25 02:40:51;;;;;;;5.03;1.80;;;9.60;99.90;;;;;;5041014;28;20494;-41
2022/11/25 02:43:17;;;;;;;10.68;2.05;;;9.50;99.90;;;;;;5041129;28;20045;-40
2022/11/25 02:46:15;;;;;;;9.90;2.40;;;9.60;99.90;;;;;;5040058;28;20534;-40
2022/11/25 02:48:42;;;;;;;5.22;1.73;;;9.50;99.90;;;;;;5041040;28;20119;-39
2022/11/25 02:51:11;;;;;;;7.53;2.17;;;9.50;99.90;;;;;;5039760;28;20556;-41
2022/11/25 02:53:37;;;;;;;7.38;2.13;;;9.50;99.90;;;;;;5040383;28;20035;-39
2022/11/25 02:56:02;;;;;;;6.40;1.95;;;9.60;99.90;;;;;;5041266;28;20394;-38
2022/11/25 02:58:28;;;;;;;6.90;1.92;;;9.60;99.90;;;;;;5041008;28;20463;-41
2022/11/25 03:00:54;;;;;;;6.05;1.70;;;9.60;99.90;;;;;;5041185;28;20483;-40
2022/11/25 03:03:20;;;;;;;6.53;1.85;;;9.60;99.90;;;;;;5030265;28;20041;-42
2022/11/25 03:05:46;;;;;;;7.25;1.85;;;9.60;99.90;;;;;;5040141;28;20033;-40
2022/11/25 03:08:11;;;;;;;6.75;2.22;;;9.70;99.90;;;;;;5040630;28;20547;-40
2022/11/25 03:10:38;;;;;;;9.00;2.20;;;9.80;99.90;;;;;;5043714;28;20017;-41
2022/11/25 03:13:05;;;;;;;11.27;2.53;;;9.80;99.90;;;;;;5042572;28;20021;-40
2022/11/25 03:15:31;;;;;;;9.07;2.33;;;9.80;99.90;;;;;;5044405;28;20029;-41
2022/11/25 03:17:56;;;;;;;5.47;1.60;;;9.80;99.90;;;;;;5043517;28;20028;-41
2022/11/25 03:20:23;;;;;;;7.20;1.92;;;9.90;99.90;;;;;;5044534;28;20025;-38
2022/11/25 03:22:48;;;;;;;5.35;1.70;;;9.90;99.90;;;;;;5043115;28;20087;-39
2022/11/25 03:25:15;;;;;;;8.40;1.92;;;9.90;99.90;;;;;;5043934;28;20044;-41
2022/11/25 03:27:41;;;;;;;4.30;1.63;;;9.90;99.90;;;;;;5043041;28;20166;-39
2022/11/25 03:30:17;;;;;;;9.55;2.13;;;9.90;99.90;;;;;;5043950;28;20043;-40
2022/11/25 03:32:43;;;;;;;10.77;2.10;;;9.90;99.90;;;;;;5043700;28;20728;-40
2022/11/25 03:35:10;;;;;;;6.90;1.52;;;9.90;99.90;;;;;;5043653;28;20464;-40
2022/11/25 03:37:36;;;;;;;6.38;1.80;;;9.90;99.90;;;;;;5043777;28;20020;-40
2022/11/25 03:40:03;;;;;;;8.00;2.13;;;9.90;99.90;;;;;;5043905;28;20140;-38
2022/11/25 03:42:29;;;;;;;6.53;1.90;;;9.90;99.90;;;;;;5044012;28;20029;-40
2022/11/25 03:44:54;;;;;;;7.82;2.20;;;9.90;99.90;;;;;;5042211;28;20033;-41
2022/11/25 03:47:20;;;;;;;7.03;1.90;;;9.90;99.90;;;;;;5028228;28;20029;-42
2022/11/25 03:49:45;;;;;;;8.40;1.80;;;9.90;99.90;;;;;;5043535;28;20029;-41
2022/11/25 03:52:11;;;;;;;6.72;1.63;;;9.90;99.90;;;;;;5043413;28;20059;-39
2022/11/25 03:54:36;;;;;;;7.50;1.60;;;9.90;99.90;;;;;;5043462;28;20037;-44
2022/11/25 03:57:02;;;;;;;7.93;2.05;;;9.90;99.90;;;;;;5043958;28;20033;-41
2022/11/25 03:59:27;;;;;;;7.80;1.70;;;9.90;99.90;;;;;;5043666;28;20037;-41
2022/11/25 04:01:53;;;;;;;8.35;1.67;;;9.90;99.90;;;;;;5043037;28;20098;-39
2022/11/25 04:04:18;;;;;;;4.57;1.45;;;9.90;99.90;;;;;;5042529;28;20141;-40
2022/11/25 04:06:44;;;;;;;7.97;1.65;;;9.90;99.90;;;;;;5043273;28;20032;-42
2022/11/25 04:09:13;;;;;;;4.80;1.60;;;9.90;99.90;;;;;;5042371;28;20036;-45
2022/11/25 04:14:23;;;;;;;4.43;1.40;;;9.90;99.90;;;;;;5043947;28;20051;-41
2022/11/25 04:16:48;;;;;;;5.82;1.65;;;9.90;99.90;;;;;;5042332;28;20033;-39
2022/11/25 04:19:14;;;;;;;6.63;1.30;;;9.90;99.90;;;;;;5043334;28;20079;-41
2022/11/25 04:21:39;;;;;;;4.90;1.77;;;9.90;99.90;;;;;;5042252;28;20025;-41
2022/11/25 04:24:05;;;;;;;3.72;1.40;;;9.90;99.90;;;;;;5041926;28;20039;-41
2022/11/25 04:26:31;;;;;;;4.40;1.38;;;9.90;99.90;;;;;;5042967;28;20029;-41
2022/11/25 04:28:56;;;;;;;4.35;1.23;;;9.90;99.90;;;;;;5042104;28;20021;-40
2022/11/25 04:31:22;;;;;;;5.20;1.38;;;9.90;99.90;;;;;;5042735;28;20025;-41
2022/11/25 04:33:48;;;;;;;4.65;1.20;;;9.90;99.90;;;;;;5042957;28;20101;-41
2022/11/25 04:36:13;;;;;;;4.63;1.70;;;9.90;99.90;;;;;;5043093;28;20049;-40
2022/11/25 04:38:39;;;;;;;5.60;1.75;;;9.90;99.90;;;;;;5042929;28;20077;-39
2022/11/25 04:41:05;;;;;;;5.70;1.98;;;9.90;99.90;;;;;;5043518;28;20017;-41
2022/11/25 04:43:30;;;;;;;3.42;1.52;;;9.90;99.90;;;;;;5043291;28;20055;-40
2022/11/25 04:45:56;;;;;;;6.05;1.42;;;9.90;99.90;;;;;;5041652;28;20046;-41
2022/11/25 04:48:22;;;;;;;3.90;1.48;;;9.90;99.90;;;;;;5043567;28;20042;-40
2022/11/25 04:50:47;;;;;;;5.78;1.40;;;9.90;99.90;;;;;;5042096;28;20032;-42
2022/11/25 04:53:13;;;;;;;6.45;1.40;;;9.90;99.90;;;;;;5042310;28;20083;-41
2022/11/25 04:55:39;;;;;;;4.43;1.40;;;9.90;99.90;;;;;;5042722;28;20021;-40
2022/11/25 04:58:05;;;;;;;6.70;1.50;;;9.90;99.90;;;;;;5042303;28;20024;-41
2022/11/25 05:00:30;;;;;;;4.15;1.25;;;9.90;99.90;;;;;;5042955;28;20032;-40
2022/11/25 05:02:56;;;;;;;7.10;1.40;;;10.00;99.90;;;;;;5042481;28;20051;-40
2022/11/25 05:05:22;;;;;;;6.05;1.48;;;10.00;99.90;;;;;;5041224;28;20024;-41
2022/11/25 05:07:47;;;;;;;3.92;1.35;;;10.00;99.90;;;;;;5042087;28;20121;-40
2022/11/25 05:10:13;;;;;;;4.15;1.15;;;10.00;99.90;;;;;;5042035;28;20031;-39
2022/11/25 05:12:40;;;;;;;4.60;1.58;;;10.00;99.90;;;;;;5041249;28;20112;-40
2022/11/25 05:15:06;;;;;;;5.05;1.27;;;10.00;99.90;;;;;;5042084;28;20467;-40
2022/11/25 05:17:33;;;;;;;6.20;1.80;;;10.00;99.90;;;;;;5041495;28;20870;-40
2022/11/25 05:19:58;;;;;;;5.22;1.27;;;10.00;99.90;;;;;;5041014;28;20025;-41
2022/11/25 05:22:27;;;;;;;6.60;1.55;;;10.00;99.90;;;;;;5042288;28;20056;-41
2022/11/25 05:24:53;;;;;;;5.47;1.50;;;10.00;99.90;;;;;;5042019;28;20040;-41
2022/11/25 05:27:20;;;;;;;6.38;1.40;;;10.00;99.90;;;;;;5040876;28;20023;-41
2022/11/25 05:29:46;;;;;;;4.00;1.25;;;10.00;99.90;;;;;;5041886;28;20039;-38
2022/11/25 05:32:13;;;;;;;3.08;1.30;;;10.00;99.90;;;;;;5040854;28;20025;-42
2022/11/25 05:34:39;;;;;;;4.95;1.30;;;10.00;99.90;;;;;;5040781;28;20036;-41
2022/11/25 05:37:05;;;;;;;4.43;1.52;;;10.10;99.90;;;;;;5040780;28;20059;-40
2022/11/25 05:39:30;;;;;;;5.65;1.75;;;10.10;99.90;;;;;;5042038;28;20033;-40
2022/11/25 05:41:56;;;;;;;3.72;1.23;;;10.00;99.90;;;;;;5040173;28;20027;-41
2022/11/25 05:44:22;;;;;;;5.18;1.50;;;10.00;99.90;;;;;;5041699;28;20036;-41
2022/11/25 05:46:50;;;;;;;4.80;1.40;;;10.00;99.90;;;;;;5040357;28;20083;-40
2022/11/25 05:49:17;;;;;;;4.47;1.40;;;10.00;99.90;;;;;;5040624;28;20029;-42
2022/11/25 05:51:43;;;;;;;2.80;1.00;;;10.00;99.90;;;;;;5041402;28;20480;-41
2022/11/25 05:54:08;;;;;;;4.95;1.55;;;10.00;99.90;;;;;;5040976;28;20033;-40
2022/11/25 05:56:34;;;;;;;3.08;1.23;;;10.00;99.90;;;;;;5040662;28;20017;-40
2022/11/25 05:59:00;;;;;;;5.95;1.65;;;10.00;99.90;;;;;;5041060;28;20099;-41
2022/11/25 06:01:26;;;;;;;5.63;1.40;;;10.00;99.90;;;;;;5040825;28;20036;-40
2022/11/25 06:03:52;;;;;;;5.32;1.50;;;10.10;99.90;;;;;;5041006;28;20033;-42
2022/11/25 06:06:18;;;;;;;3.25;1.25;;;10.10;99.90;;;;;;5041628;28;20110;-41
2022/11/25 06:08:43;;;;;;;5.78;1.50;;;10.10;99.90;;;;;;5040312;28;20496;-41
2022/11/25 06:11:12;;;;;;;4.40;1.25;;;10.00;99.90;;;;;;5041449;28;20060;-40
2022/11/25 06:13:39;;;;;;;3.25;0.95;;;10.00;99.90;;;;;;5040394;28;20086;-41
2022/11/25 06:16:08;;;;;;;3.03;1.05;;;10.00;99.90;;;;;;5020578;28;20029;-41
2022/11/25 06:18:35;;;;;;;2.20;1.00;;;10.00;99.90;;;;;;5036131;28;20126;-42
2022/11/25 06:21:00;;;;;;;4.55;1.08;;;10.00;99.90;;;;;;5041189;28;20491;-40
2022/11/25 06:23:26;;;;;;;2.45;0.90;;;10.00;99.90;;;;;;5040776;28;20037;-41
2022/11/25 06:25:52;;;;;;;3.33;0.98;;;10.00;99.90;;;;;;5041832;28;20430;-41
2022/11/25 06:28:17;;;;;;;3.53;1.10;;;10.00;99.90;;;;;;5040785;28;20033;-41
2022/11/25 06:30:43;;;;;;;3.33;0.98;;;10.00;99.90;;;;;;5041005;28;20481;-42
2022/11/25 06:33:09;;;;;;;4.32;1.10;;;10.00;99.90;;;;;;5041005;28;20098;-40
2022/11/25 06:35:35;;;;;;;3.88;1.10;;;9.90;99.90;;;;;;5041339;28;20051;-40
2022/11/25 06:38:00;;;;;;;4.75;1.30;;;9.90;99.90;;;;;;5041705;28;20090;-41
2022/11/25 06:40:26;;;;;;;3.95;1.10;;;9.80;99.90;;;;;;5041080;28;20052;-39
2022/11/25 06:42:51;;;;;;;1.85;0.93;;;9.70;99.90;;;;;;5040660;28;20151;-41
2022/11/25 06:45:17;;;;;;;3.17;1.27;;;9.70;99.90;;;;;;5044894;28;20040;-40
2022/11/25 06:47:42;;;;;;;3.40;1.38;;;9.60;99.90;;;;;;5044910;28;20033;-40
2022/11/25 06:50:08;;;;;;;3.05;1.52;;;9.60;99.90;;;;;;5044268;28;20074;-39
2022/11/25 06:52:34;;;;;;;2.75;1.20;;;9.50;99.90;;;;;;5044641;28;20464;-40
2022/11/25 06:55:00;;;;;;;4.18;1.23;;;9.40;99.90;;;;;;5043875;28;20124;-41
2022/11/25 06:57:25;;;;;;;3.35;1.10;;;9.40;99.90;;;;;;5044966;28;20213;-39
2022/11/25 06:59:51;;;;;;;3.72;1.10;;;9.30;99.90;;;;;;5043575;28;20633;-41
2022/11/25 07:02:16;;;;;;;3.97;1.20;;;9.30;99.90;;;;;;5044245;28;20021;-40
2022/11/25 07:04:43;;;;;;;3.22;1.63;;;9.20;99.90;;;;;;5043889;28;20445;-39
2022/11/25 07:07:09;;;;;;;5.95;1.30;;;9.20;99.90;;;;;;5044004;28;20029;-41
2022/11/25 07:09:35;;;;;;;7.78;2.17;;;9.20;99.90;;;;;;5044842;28;20048;-41
2022/11/25 07:12:00;;;;;;;2.90;1.10;;;9.10;99.90;;;;;;5044094;28;20526;-41
2022/11/25 07:14:26;;;;;;;2.10;1.40;;;9.10;99.90;;;;;;5044236;28;20031;-40
2022/11/25 07:16:51;;;;;;;4.75;1.95;;;9.10;99.90;;;;;;5044425;28;20029;-39
2022/11/25 07:19:17;;;;;;;3.08;1.90;;;9.10;99.90;;;;;;5043869;28;20036;-41
2022/11/25 07:21:44;;;;;;;3.47;1.70;;;9.00;99.90;;;;;;5044034;28;20031;-40
2022/11/25 07:24:12;;;;;;;5.18;1.50;;;9.00;99.90;;;;;;5044127;28;20578;-41
2022/11/25 07:26:39;;;;;;;5.45;1.77;;;8.90;99.90;;;;;;5043669;28;20543;-41
2022/11/25 07:29:08;;;;;;;3.92;1.40;;;8.90;99.90;;;;;;5043978;28;20033;-41
2022/11/25 07:31:35;;;;;;;3.60;1.52;;;8.90;99.90;;;;;;5043222;28;20025;-41
2022/11/25 07:34:04;;;;;;;3.22;1.15;;;8.90;99.90;;;;;;5043068;28;20036;-40
2022/11/25 07:36:31;;;;;;;4.22;1.30;;;8.80;99.90;;;;;;5044191;28;20053;-41
2022/11/25 07:38:58;;;;;;;2.58;1.58;;;8.80;99.90;;;;;;5043141;28;20033;-38
2022/11/25 07:41:26;;;;;;;4.72;1.60;;;8.80;99.90;;;;;;5043440;28;20047;-40
2022/11/25 07:43:54;;;;;;;4.55;1.30;;;8.80;99.90;;;;;;5043505;28;20047;-41
2022/11/25 07:46:22;;;;;;;1.50;1.08;;;8.80;99.90;;;;;;5043362;28;20021;-40
2022/11/25 07:48:48;;;;;;;2.17;1.10;;;8.80;99.90;;;;;;5043730;28;20109;-41
2022/11/25 07:51:23;;;;;;;3.50;1.40;;;8.70;99.90;;;;;;5043679;28;20025;-42
2022/11/25 07:53:49;;;;;;;4.60;1.35;;;8.70;99.90;;;;;;5043274;28;20118;-41
2022/11/25 07:56:16;;;;;;;4.85;1.35;;;8.70;99.90;;;;;;5042644;28;20025;-40
2022/11/25 07:58:42;;;;;;;3.65;1.45;;;8.70;99.90;;;;;;5043621;28;20027;-41
2022/11/25 08:01:10;;;;;;;3.80;1.63;;;8.70;99.90;;;;;;5042783;28;20048;-40
2022/11/25 08:03:37;;;;;;;3.17;1.15;;;8.70;99.90;;;;;;5043817;28;20041;-41
2022/11/25 08:06:05;;;;;;;3.50;1.45;;;8.70;99.90;;;;;;5043176;28;20017;-40
2022/11/25 08:08:32;;;;;;;4.13;1.38;;;8.70;99.90;;;;;;5031314;28;20098;-40
2022/11/25 08:10:58;;;;;;;2.13;1.10;;;8.60;99.90;;;;;;5043244;28;20021;-41
2022/11/25 08:13:24;;;;;;;3.67;1.92;;;8.70;99.90;;;;;;5043231;28;20028;-41
2022/11/25 08:15:50;;;;;;;3.72;1.60;;;8.70;99.90;;;;;;5042801;28;20024;-40
2022/11/25 08:18:16;;;;;;;3.88;1.60;;;8.70;99.90;;;;;;5043050;28;20017;-41
2022/11/25 08:20:42;;;;;;;4.32;1.67;;;8.70;99.90;;;;;;5042870;28;20674;-40
2022/11/25 08:23:07;;;;;;;3.50;1.40;;;8.70;99.90;;;;;;5042443;28;20504;-40
2022/11/25 08:25:38;;;;;;;3.30;1.50;;;8.70;99.90;;;;;;5042967;28;20025;-41
2022/11/25 08:28:04;;;;;;;2.08;1.40;;;8.70;99.90;;;;;;5042610;28;20032;-41
2022/11/25 08:30:29;;;;;;;3.97;1.55;;;8.70;99.90;;;;;;5043085;28;20874;-44
2022/11/25 08:32:56;;;;;;;3.92;1.50;;;8.70;99.90;;;;;;5042522;28;20021;-40
2022/11/25 08:35:22;;;;;;;3.53;1.80;;;8.70;99.90;;;;;;5042990;28;20053;-37
2022/11/25 08:37:48;;;;;;;6.88;2.42;;;8.70;99.90;;;;;;5042252;28;20556;-40
2022/11/25 08:40:14;;;;;;;5.38;1.70;;;8.70;99.90;;;;;;5041933;28;20627;-41
2022/11/25 08:42:39;;;;;;;4.90;1.63;;;8.80;99.90;;;;;;5041785;28;20024;-41
2022/11/25 08:45:07;;;;;;;3.60;1.70;;;8.80;99.90;;;;;;5041421;28;20040;-41
2022/11/25 08:47:32;;;;;;;2.75;1.35;;;8.80;99.90;;;;;;5042238;28;20028;-41
2022/11/25 08:49:58;;;;;;;4.60;1.60;;;8.80;99.90;;;;;;5041770;28;20028;-41
2022/11/25 08:52:23;;;;;;;4.78;2.00;;;8.80;99.90;;;;;;5042247;28;20029;-41
2022/11/25 08:54:49;;;;;;;4.97;1.67;;;8.90;99.90;;;;;;5041864;28;20028;-41
2022/11/25 08:57:15;;;;;;;3.22;1.85;;;8.90;99.90;;;;;;5041283;28;20040;-41
2022/11/25 08:59:41;;;;;;;5.00;1.90;;;8.90;99.90;;;;;;5042172;28;20031;-41
2022/11/25 09:02:08;;;;;;;5.15;1.90;;;8.90;99.90;;;;;;5042413;28;20842;-42
2022/11/25 09:04:34;;;;;;;4.72;1.70;;;8.90;99.90;;;;;;5041258;28;20776;-40
2022/11/25 09:07:00;;;;;;;2.63;1.67;;;9.00;99.90;;;;;;5042637;28;20037;-41
2022/11/25 09:09:26;;;;;;;4.97;1.70;;;9.00;99.90;;;;;;5041908;28;20033;-41
2022/11/25 09:11:51;;;;;;;3.55;1.50;;;9.00;99.90;;;;;;5042286;28;20066;-41
2022/11/25 09:14:20;;;;;;;3.92;1.60;;;9.00;99.90;;;;;;5042096;28;20666;-42
2022/11/25 09:16:46;;;;;;;4.05;1.60;;;9.10;99.90;;;;;;5042113;28;20494;-42
2022/11/25 09:19:11;;;;;;;4.50;1.88;;;9.10;99.90;;;;;;5041477;28;20025;-41
2022/11/25 09:21:37;;;;;;;5.80;2.05;;;9.10;99.90;;;;;;5041462;28;20158;-41
2022/11/25 09:24:02;;;;;;;3.25;1.50;;;9.10;99.90;;;;;;5041258;28;20037;-41
2022/11/25 09:26:34;;;;;;;2.92;1.75;;;9.20;99.90;;;;;;5042121;28;20036;-41
2022/11/25 09:28:59;;;;;;;4.03;1.40;;;9.20;99.90;;;;;;5041732;28;20585;-41
2022/11/25 09:31:25;;;;;;;8.27;2.42;;;9.20;99.90;;;;;;5041843;28;20040;-41
2022/11/25 09:33:51;;;;;;;3.97;1.80;;;9.20;99.90;;;;;;5041005;28;20052;-40
2022/11/25 09:36:18;;;;;;;3.53;2.00;;;9.20;99.90;;;;;;5041305;28;20401;-40
2022/11/25 09:38:44;;;;;;;4.65;1.80;;;9.30;99.90;;;;;;5041467;28;20021;-42
2022/11/25 09:47:32;;;;;;;4.95;1.98;;;9.40;99.90;;;;;;5034225;28;20091;-42
2022/11/25 09:50:06;;;;;;;3.05;1.48;;;9.40;99.90;;;;;;5041215;28;20029;-39
2022/11/25 09:53:06;;;;;;;4.28;2.20;;;9.50;99.90;;;;;;5041724;28;20025;-42
2022/11/25 09:55:38;;;;;;;4.18;2.03;;;9.50;99.90;;;;;;5041101;28;20611;-41
2022/11/25 09:58:34;;;;;;;5.07;1.93;;;9.50;99.90;;;;;;5040670;28;20031;-37
2022/11/25 10:01:04;;;;;;;4.55;2.25;;;9.50;99.90;;;;;;5040072;28;20743;-37
2022/11/25 10:04:03;;;;;;;4.38;1.88;;;9.60;99.90;;;;;;5041684;28;20048;-40
2022/11/25 10:06:43;;;;;;;3.65;2.00;;;9.60;99.90;;;;;;5041358;28;20043;-41
2022/11/25 10:09:20;;;;;;;2.90;1.83;;;9.70;99.90;;;;;;5040240;28;20049;-41
2022/11/25 10:11:51;;;;;;;5.63;2.45;;;9.70;99.90;;;;;;5041427;28;20108;-40
2022/11/25 10:14:44;;;;;;;3.28;1.70;;;9.70;99.90;;;;;;5041248;28;20021;-40
2022/11/25 10:17:13;;;;;;;3.85;2.13;;;9.80;99.90;;;;;;5040741;28;20038;-40
2022/11/25 10:19:54;;;;;;;3.97;2.05;;;9.80;99.90;;;;;;5043978;28;20033;-40
2022/11/25 10:22:26;;;;;;;8.27;2.65;;;9.80;99.90;;;;;;5044454;28;20142;-40
2022/11/25 10:24:56;;;;;;;5.60;2.72;;;9.80;99.90;;;;;;5045832;28;20086;-41
2022/11/25 10:27:42;;;;;;;5.45;2.28;;;9.80;99.90;;;;;;5045243;28;20460;-41
2022/11/25 10:30:19;;;;;;;5.38;2.92;;;9.90;99.90;;;;;;5044856;28;20037;-41
2022/11/25 10:32:58;;;;;;;7.70;2.42;;;9.90;99.90;;;;;;5043718;28;20029;-38
2022/11/25 10:35:40;;;;;;;5.53;2.58;;;9.90;99.90;;;;;;5044666;28;20021;-38
2022/11/25 10:38:12;;;;;;;7.53;2.63;;;10.00;99.90;;;;;;5041293;28;20468;-40
2022/11/25 10:40:38;;;;;;;4.43;2.30;;;10.00;99.90;;;;;;5045153;28;20104;-41
2022/11/25 10:43:15;;;;;;;7.03;3.03;;;10.10;99.90;;;;;;5043926;28;20021;-40
2022/11/25 10:46:21;;;;;;;5.00;2.65;;;10.10;99.90;;;;;;5045062;28;20029;-40
2022/11/25 10:48:57;;;;;;;5.45;2.80;;;10.10;99.90;;;;;;5021014;28;20036;-40
2022/11/25 10:51:44;;;;;;;3.95;2.22;;;10.10;99.90;;;;;;5041193;28;20788;-39
2022/11/25 10:54:18;;;;;;;6.53;2.83;;;10.20;99.90;;;;;;5034748;28;20029;-41
2022/11/25 10:56:55;;;;;;;5.18;2.67;;;10.20;99.90;;;;;;5043840;28;20555;-40
2022/11/25 10:59:34;;;;;;;5.43;2.70;;;10.30;99.90;;;;;;5034369;28;20055;-41
2022/11/25 11:02:18;;;;;;;5.40;2.88;;;10.30;99.90;;;;;;5044482;28;20032;-40
2022/11/25 11:04:49;;;;;;;4.00;2.80;;;10.30;99.90;;;;;;5044194;28;20480;-41
2022/11/25 11:07:14;;;;;;;6.53;3.28;;;10.40;99.90;;;;;;5044367;28;20029;-41
2022/11/25 11:09:40;;;;;;;5.22;2.80;;;10.40;99.90;;;;;;5045190;28;20085;-40
2022/11/25 11:12:23;;;;;;;6.20;2.75;;;10.40;99.90;;;;;;5044352;28;20025;-39
2022/11/25 11:14:49;;;;;;;4.88;2.40;;;10.40;99.90;;;;;;5034555;28;20039;-40
2022/11/25 11:17:40;;;;;;;6.13;2.38;;;10.50;99.90;;;;;;5043901;28;20021;-39
2022/11/25 11:20:06;;;;;;;5.35;2.88;;;10.50;99.90;;;;;;5033791;28;20484;-39
2022/11/25 11:22:33;;;;;;;7.10;2.20;;;10.50;99.90;;;;;;5044542;28;20029;-40
2022/11/25 11:25:06;;;;;;;4.32;2.30;;;10.50;99.90;;;;;;5043000;28;20484;-40
2022/11/25 11:27:36;;;;;;;6.35;2.65;;;10.60;99.90;;;;;;5044300;28;20020;-39
2022/11/25 11:30:09;;;;;;;7.28;2.75;;;10.60;99.90;;;;;;5041949;28;20125;-40
2022/11/25 11:32:42;;;;;;;4.20;2.45;;;10.70;99.90;;;;;;5043008;28;20028;-39
2022/11/25 11:35:24;;;;;;;5.80;2.20;;;10.70;99.90;;;;;;5044299;28;20029;-41
2022/11/25 11:37:56;;;;;;;7.00;2.58;;;10.80;99.90;;;;;;5044082;28;20040;-40
2022/11/25 11:40:45;;;;;;;6.57;1.80;;;10.80;99.90;;;;;;5043479;28;20033;-41
2022/11/25 11:43:29;;;;;;;5.38;2.28;;;10.90;99.90;;;;;;5043686;28;20025;-41
2022/11/25 11:46:08;;;;;;;6.13;2.33;;;11.00;99.90;;;;;;5033221;28;20029;-39
2022/11/25 11:49:19;;;;;;;7.10;2.38;;;11.00;99.90;;;;;;5043314;28;20037;-39
2022/11/25 11:51:57;;;;;;;5.38;2.17;;;11.10;99.90;;;;;;5043536;28;20103;-41
2022/11/25 11:54:42;;;;;;;6.75;2.08;;;11.10;99.90;;;;;;5043458;28;20052;-39
2022/11/25 11:57:16;;;;;;;6.75;2.30;;;11.20;99.90;;;;;;5042953;28;20020;-40
2022/11/25 11:59:52;;;;;;;5.85;2.20;;;11.20;99.90;;;;;;5042852;28;20024;-41
2022/11/25 12:02:32;;;;;;;6.75;2.45;;;11.20;99.90;;;;;;5043039;28;20078;-40
2022/11/25 12:05:10;;;;;;;7.22;2.05;;;11.30;99.90;;;;;;5042729;28;20047;-41
2022/11/25 12:08:17;;;;;;;5.43;2.05;;;11.40;99.90;;;;;;5043083;28;20052;-41
2022/11/25 12:10:53;;;;;;;3.28;1.70;;;11.50;99.90;;;;;;5042795;28;20033;-41
2022/11/25 12:13:26;;;;;;;6.85;2.50;;;11.50;99.90;;;;;;5042886;28;20900;-42
2022/11/25 12:16:14;;;;;;;6.80;2.28;;;11.60;99.90;;;;;;5043258;28;20060;-41
2022/11/25 12:19:12;;;;;;;5.53;2.40;;;11.60;99.90;;;;;;5043329;28;20476;-38
2022/11/25 12:22:06;;;;;;;5.35;2.00;;;11.70;99.90;;;;;;5042131;28;20067;-40
2022/11/25 12:24:53;;;;;;;6.05;2.15;;;11.80;99.90;;;;;;5042966;28;20485;-41
2022/11/25 12:27:34;;;;;;;7.78;2.40;;;11.90;99.90;;;;;;5033490;28;20047;-41
2022/11/25 12:30:11;;;;;;;7.70;2.00;;;12.00;99.90;;;;;;5042638;28;20036;-42
2022/11/25 12:32:37;;;;;;;4.18;1.75;;;12.00;99.90;;;;;;5043184;28;20036;-41
2022/11/25 12:35:34;;;;;;;6.18;2.10;;;12.10;99.90;;;;;;5042972;28;20028;-40
2022/11/25 12:38:18;;;;;;;7.57;2.13;;;12.20;99.90;;;;;;5034878;28;20052;-41
2022/11/25 12:41:02;;;;;;;5.25;1.80;;;12.20;99.90;;;;;;5041886;28;20554;-41
2022/11/25 12:43:49;;;;;;;6.15;1.88;;;12.20;99.90;;;;;;5042098;28;20784;-41
2022/11/25 12:46:35;;;;;;;7.97;2.30;;;12.20;99.90;;;;;;5042259;28;20021;-42
2022/11/25 12:49:01;;;;;;;5.25;1.77;;;12.20;99.90;;;;;;5042741;28;20033;-39
2022/11/25 12:51:46;;;;;;;6.50;2.25;;;12.20;99.90;;;;;;5041628;28;20064;-41
2022/11/25 12:54:27;;;;;;;4.75;1.90;;;12.20;99.90;;;;;;5041871;28;20036;-41
2022/11/25 12:57:23;;;;;;;7.50;2.75;;;12.20;99.90;;;;;;5042146;28;20501;-40
2022/11/25 13:00:01;;;;;;;7.07;2.53;;;12.20;99.90;;;;;;5022474;28;20068;-41
2022/11/25 13:02:29;;;;;;;7.22;1.48;;;12.20;99.90;;;;;;5039758;28;20040;-40
2022/11/25 13:05:29;;;;;;;6.70;1.95;;;12.20;99.90;;;;;;5042019;28;20123;-40
2022/11/25 13:08:16;;;;;;;6.05;1.83;;;12.30;99.90;;;;;;5041522;28;20035;-40
2022/11/25 13:10:58;;;;;;;7.25;2.00;;;12.40;99.90;;;;;;5041589;28;20037;-40
2022/11/25 13:13:46;;;;;;;6.50;1.90;;;12.40;99.90;;;;;;5039421;28;20758;-39
2022/11/25 13:16:12;;;;;;;3.97;1.83;;;12.50;99.90;;;;;;5041844;28;20033;-41
2022/11/25 13:18:41;;;;;;;3.80;1.70;;;12.50;99.90;;;;;;5041661;28;20112;-41
2022/11/25 13:21:12;;;;;;;6.43;1.75;;;12.40;99.90;;;;;;5042066;28;20041;-41